Time;durP1;ratioP1;P1;durP2;ratioP2;P2;SDS_P1;SDS_P2;PMS_P1;PMS_P2;Temp;Humidity;BMP_temperature;BMP_pressure;BME280_temperature;BME280_humidity;BME280_pressure;Samples;Min_cycle;Max_cycle;Signal;HPM_P1;HPM_P2
2023/05/10 00:00:48;;;;;;;0.70;0.70;;;;;;;;;;4947660;29;20454;-77
2023/05/10 00:03:15;;;;;;;0.67;0.67;;;;;;;;;;4938502;29;20448;-78
2023/05/10 00:05:42;;;;;;;0.70;0.70;;;;;;;;;;4938165;29;20467;-77
2023/05/10 00:08:09;;;;;;;1.67;1.57;;;;;;;;;;4947079;28;20546;-78
2023/05/10 00:10:37;;;;;;;0.70;0.70;;;;;;;;;;4930883;29;20492;-76
2023/05/10 00:13:05;;;;;;;0.70;0.70;;;;;;;;;;4940685;29;20538;-78
2023/05/10 00:15:32;;;;;;;0.70;0.70;;;;;;;;;;4941809;29;20451;-78
2023/05/10 00:17:59;;;;;;;0.60;0.60;;;;;;;;;;4935387;29;20445;-77
2023/05/10 00:20:26;;;;;;;0.70;0.70;;;;;;;;;;4948677;29;20469;-77
2023/05/10 00:22:53;;;;;;;0.70;0.67;;;;;;;;;;4934640;28;20470;-77
2023/05/10 00:25:21;;;;;;;0.70;0.70;;;;;;;;;;4925875;29;20461;-77
2023/05/10 00:27:48;;;;;;;0.60;0.60;;;;;;;;;;4941249;29;20960;-75
2023/05/10 00:30:16;;;;;;;0.90;0.90;;;;;;;;;;4945813;29;20817;-78
2023/05/10 00:32:44;;;;;;;0.70;0.70;;;;;;;;;;4928479;29;20842;-78
2023/05/10 00:35:11;;;;;;;0.60;0.60;;;;;;;;;;4943998;29;20437;-78
2023/05/10 00:37:37;;;;;;;0.70;0.70;;;;;;;;;;4937987;29;20546;-76
2023/05/10 00:40:05;;;;;;;0.60;0.60;;;;;;;;;;4954200;28;20552;-77
2023/05/10 00:42:33;;;;;;;0.60;0.60;;;;;;;;;;4940005;29;20519;-78
2023/05/10 00:45:00;;;;;;;0.80;0.80;;;;;;;;;;4942421;28;20528;-75
2023/05/10 00:47:29;;;;;;;0.70;0.70;;;;;;;;;;4944039;29;20449;-79
2023/05/10 00:49:56;;;;;;;0.60;0.60;;;;;;;;;;4930872;29;20446;-76
2023/05/10 00:52:23;;;;;;;0.70;0.70;;;;;;;;;;4932735;29;20492;-78
2023/05/10 00:54:51;;;;;;;0.80;0.80;;;;;;;;;;4945178;29;20461;-77
2023/05/10 00:57:19;;;;;;;0.60;0.60;;;;;;;;;;4922598;29;20954;-77
2023/05/10 00:59:46;;;;;;;0.60;0.60;;;;;;;;;;4940787;29;20543;-77
2023/05/10 01:02:13;;;;;;;0.80;0.80;;;;;;;;;;4937089;29;20468;-78
2023/05/10 01:04:41;;;;;;;0.70;0.70;;;;;;;;;;4947675;28;20480;-79
2023/05/10 01:07:08;;;;;;;0.60;0.60;;;;;;;;;;4929626;29;20468;-77
2023/05/10 01:09:36;;;;;;;0.77;0.77;;;;;;;;;;4942194;28;20984;-76
2023/05/10 01:12:06;;;;;;;0.60;0.60;;;;;;;;;;4935069;28;20471;-77
2023/05/10 01:14:35;;;;;;;0.90;0.90;;;;;;;;;;4955319;28;20436;-77
2023/05/10 01:17:03;;;;;;;0.60;0.60;;;;;;;;;;4942029;29;20795;-78
2023/05/10 01:19:31;;;;;;;0.70;0.60;;;;;;;;;;4921328;29;20435;-78
2023/05/10 01:22:02;;;;;;;0.80;0.80;;;;;;;;;;4941379;28;20458;-78
2023/05/10 01:24:47;;;;;;;0.80;0.80;;;;;;;;;;4918971;29;20995;-79
2023/05/10 01:27:20;;;;;;;0.70;0.70;;;;;;;;;;4926354;29;21061;-77
2023/05/10 01:30:10;;;;;;;0.80;0.80;;;;;;;;;;4921066;29;20455;-77
2023/05/10 01:32:46;;;;;;;0.60;0.60;;;;;;;;;;4945859;29;20530;-78
2023/05/10 01:35:16;;;;;;;0.60;0.60;;;;;;;;;;4947898;29;20461;-75
2023/05/10 01:37:46;;;;;;;0.80;0.80;;;;;;;;;;4950926;29;21002;-78
2023/05/10 01:40:18;;;;;;;0.90;0.90;;;;;;;;;;4938623;29;20974;-78
2023/05/10 01:42:48;;;;;;;0.70;0.70;;;;;;;;;;4931247;29;20796;-78
2023/05/10 01:45:19;;;;;;;0.60;0.60;;;;;;;;;;4940706;29;20455;-77
2023/05/10 01:47:50;;;;;;;0.60;0.60;;;;;;;;;;4948977;29;20471;-77
2023/05/10 01:50:19;;;;;;;0.60;0.60;;;;;;;;;;4934966;29;21018;-76
2023/05/10 01:52:49;;;;;;;0.60;0.60;;;;;;;;;;4939816;29;20858;-78
2023/05/10 01:55:17;;;;;;;0.70;0.70;;;;;;;;;;4949549;29;20879;-77
2023/05/10 01:57:46;;;;;;;0.70;0.70;;;;;;;;;;4948957;28;20458;-77
2023/05/10 02:00:14;;;;;;;0.60;0.60;;;;;;;;;;4940190;29;20441;-78
2023/05/10 02:02:44;;;;;;;3.83;1.13;;;;;;;;;;4941290;29;20422;-77
2023/05/10 02:05:13;;;;;;;0.80;0.80;;;;;;;;;;4945384;29;20458;-78
2023/05/10 02:07:40;;;;;;;0.70;0.70;;;;;;;;;;4949509;29;20511;-78
2023/05/10 02:10:09;;;;;;;0.60;0.60;;;;;;;;;;4930371;29;20455;-80
2023/05/10 02:12:36;;;;;;;0.70;0.70;;;;;;;;;;4950692;29;20473;-77
2023/05/10 02:15:04;;;;;;;0.60;0.60;;;;;;;;;;4922969;29;20806;-79
2023/05/10 02:17:32;;;;;;;0.70;0.70;;;;;;;;;;4954394;29;20484;-78
2023/05/10 02:19:59;;;;;;;0.60;0.60;;;;;;;;;;4952186;29;20439;-78
2023/05/10 02:22:28;;;;;;;0.70;0.67;;;;;;;;;;4922988;29;20493;-79
2023/05/10 02:24:55;;;;;;;0.70;0.70;;;;;;;;;;4953747;29;20448;-79
2023/05/10 02:27:23;;;;;;;0.63;0.63;;;;;;;;;;4953748;29;20460;-81
2023/05/10 02:29:50;;;;;;;0.63;0.63;;;;;;;;;;4943395;29;20833;-80
2023/05/10 02:32:17;;;;;;;0.60;0.60;;;;;;;;;;4949488;28;21058;-80
2023/05/10 02:34:45;;;;;;;0.60;0.60;;;;;;;;;;4941707;29;20497;-79
2023/05/10 02:37:13;;;;;;;0.70;0.70;;;;;;;;;;4935714;29;20476;-80
2023/05/10 02:39:43;;;;;;;0.60;0.60;;;;;;;;;;4942472;28;20465;-80
2023/05/10 02:42:12;;;;;;;0.60;0.60;;;;;;;;;;4928976;29;20503;-80
2023/05/10 02:44:41;;;;;;;0.70;0.60;;;;;;;;;;4912646;29;20449;-80
2023/05/10 02:47:08;;;;;;;0.70;0.70;;;;;;;;;;4942231;29;20448;-80
2023/05/10 02:49:35;;;;;;;0.70;0.70;;;;;;;;;;4947090;29;20461;-80
2023/05/10 02:52:04;;;;;;;0.70;0.70;;;;;;;;;;4951610;28;20491;-81
2023/05/10 02:54:32;;;;;;;0.60;0.60;;;;;;;;;;4939211;29;20544;-80
2023/05/10 02:57:03;;;;;;;1.17;1.07;;;;;;;;;;4936397;29;20467;-80
2023/05/10 02:59:30;;;;;;;0.70;0.70;;;;;;;;;;4946000;29;20464;-80
2023/05/10 03:01:57;;;;;;;4.60;1.80;;;;;;;;;;4953195;29;20523;-80
2023/05/10 03:04:24;;;;;;;0.60;0.60;;;;;;;;;;4925814;29;20469;-79
2023/05/10 03:06:54;;;;;;;0.60;0.60;;;;;;;;;;4942639;29;20478;-80
2023/05/10 03:09:21;;;;;;;0.73;0.73;;;;;;;;;;4928167;29;20894;-79
2023/05/10 03:11:55;;;;;;;0.87;0.87;;;;;;;;;;4926992;29;20460;-79
2023/05/10 03:14:30;;;;;;;0.60;0.60;;;;;;;;;;4950049;28;20466;-81
2023/05/10 03:16:59;;;;;;;0.70;0.70;;;;;;;;;;4943748;29;20488;-80
2023/05/10 03:19:30;;;;;;;0.70;0.70;;;;;;;;;;4945006;29;20457;-80
2023/05/10 03:21:59;;;;;;;0.90;0.90;;;;;;;;;;4928160;29;20494;-80
2023/05/10 03:24:29;;;;;;;0.60;0.60;;;;;;;;;;4954241;28;20798;-80
2023/05/10 03:27:02;;;;;;;0.70;0.70;;;;;;;;;;4938955;29;20477;-79
2023/05/10 03:29:31;;;;;;;0.70;0.70;;;;;;;;;;4929359;29;20791;-78
2023/05/10 03:31:59;;;;;;;0.80;0.80;;;;;;;;;;4941173;29;20452;-79
2023/05/10 03:34:29;;;;;;;0.70;0.70;;;;;;;;;;4940271;29;20477;-80
2023/05/10 03:36:56;;;;;;;0.60;0.60;;;;;;;;;;4935226;29;21066;-79
2023/05/10 03:39:25;;;;;;;0.60;0.60;;;;;;;;;;4937427;29;20477;-79
2023/05/10 03:41:56;;;;;;;0.83;0.83;;;;;;;;;;4946815;29;20928;-80
2023/05/10 03:44:23;;;;;;;0.60;0.60;;;;;;;;;;4919400;29;20446;-79
2023/05/10 03:46:51;;;;;;;0.60;0.60;;;;;;;;;;4935135;29;20459;-80
2023/05/10 03:49:19;;;;;;;0.60;0.60;;;;;;;;;;4937076;29;20453;-79
2023/05/10 03:51:47;;;;;;;0.60;0.60;;;;;;;;;;4940240;29;20470;-80
2023/05/10 03:54:15;;;;;;;0.63;0.60;;;;;;;;;;4927346;29;20484;-79
2023/05/10 03:56:41;;;;;;;0.60;0.60;;;;;;;;;;4954665;28;20845;-79
2023/05/10 03:59:08;;;;;;;0.80;0.80;;;;;;;;;;4940751;29;20456;-80
2023/05/10 04:01:35;;;;;;;0.60;0.60;;;;;;;;;;4935552;28;20529;-80
2023/05/10 04:04:05;;;;;;;0.60;0.60;;;;;;;;;;4936002;29;20465;-79
2023/05/10 04:06:31;;;;;;;0.70;0.70;;;;;;;;;;4942210;29;20553;-80
2023/05/10 04:09:04;;;;;;;0.60;0.60;;;;;;;;;;4936145;29;20515;-78
2023/05/10 04:11:33;;;;;;;0.73;0.73;;;;;;;;;;4936752;29;20439;-80
2023/05/10 04:14:01;;;;;;;0.60;0.60;;;;;;;;;;4945751;29;20443;-79
2023/05/10 04:16:28;;;;;;;0.63;0.63;;;;;;;;;;4925365;29;20459;-80
2023/05/10 04:18:55;;;;;;;0.70;0.70;;;;;;;;;;4938301;29;20450;-80
2023/05/10 04:21:24;;;;;;;0.70;0.70;;;;;;;;;;4933526;29;20445;-79
2023/05/10 04:23:51;;;;;;;0.90;0.90;;;;;;;;;;4908710;29;20811;-79
2023/05/10 04:26:18;;;;;;;0.60;0.60;;;;;;;;;;4944170;29;20456;-78
2023/05/10 04:28:45;;;;;;;0.70;0.70;;;;;;;;;;4950907;28;20540;-79
2023/05/10 04:31:12;;;;;;;0.70;0.70;;;;;;;;;;4933407;29;20442;-80
2023/05/10 04:33:39;;;;;;;0.70;0.70;;;;;;;;;;4939317;29;20440;-80
2023/05/10 04:36:06;;;;;;;0.70;0.70;;;;;;;;;;4943850;29;20818;-78
2023/05/10 04:38:34;;;;;;;0.60;0.60;;;;;;;;;;4934883;29;20581;-79
2023/05/10 04:41:05;;;;;;;0.70;0.70;;;;;;;;;;4929095;29;20821;-79
2023/05/10 04:43:32;;;;;;;0.60;0.60;;;;;;;;;;4934977;29;20828;-80
2023/05/10 04:45:59;;;;;;;0.80;0.80;;;;;;;;;;4955464;28;20797;-79
2023/05/10 04:48:26;;;;;;;0.70;0.70;;;;;;;;;;4946627;29;20454;-80
2023/05/10 04:50:53;;;;;;;0.80;0.80;;;;;;;;;;4936304;29;20452;-79
2023/05/10 04:53:22;;;;;;;0.60;0.60;;;;;;;;;;4945639;29;20633;-77
2023/05/10 04:55:50;;;;;;;0.80;0.80;;;;;;;;;;4933881;29;20427;-79
2023/05/10 04:58:17;;;;;;;0.70;0.70;;;;;;;;;;4944854;29;20451;-78
2023/05/10 05:00:44;;;;;;;0.60;0.60;;;;;;;;;;4948364;29;20433;-79
2023/05/10 05:03:12;;;;;;;0.83;0.83;;;;;;;;;;4940191;29;20513;-79
2023/05/10 05:05:39;;;;;;;0.70;0.70;;;;;;;;;;4927630;29;20530;-78
2023/05/10 05:08:06;;;;;;;0.70;0.70;;;;;;;;;;4941838;29;20472;-79
2023/05/10 05:10:35;;;;;;;0.60;0.60;;;;;;;;;;4946005;28;20520;-78
2023/05/10 05:13:04;;;;;;;0.80;0.80;;;;;;;;;;4929129;29;20480;-80
2023/05/10 05:15:31;;;;;;;0.60;0.60;;;;;;;;;;4929946;28;20836;-78
2023/05/10 05:17:58;;;;;;;0.60;0.60;;;;;;;;;;4938111;29;20811;-77
2023/05/10 05:20:26;;;;;;;0.60;0.60;;;;;;;;;;4947281;29;20457;-78
2023/05/10 05:22:52;;;;;;;0.60;0.60;;;;;;;;;;4935713;29;20486;-80
2023/05/10 05:25:19;;;;;;;0.70;0.70;;;;;;;;;;4936825;29;20523;-79
2023/05/10 05:27:47;;;;;;;0.70;0.70;;;;;;;;;;4940714;29;20445;-79
2023/05/10 05:30:16;;;;;;;0.70;0.70;;;;;;;;;;4935499;29;20454;-78
2023/05/10 05:32:43;;;;;;;0.97;0.97;;;;;;;;;;4935496;29;20451;-78
2023/05/10 05:35:10;;;;;;;0.70;0.70;;;;;;;;;;4933518;29;20460;-77
2023/05/10 05:37:37;;;;;;;0.70;0.70;;;;;;;;;;4938836;29;20471;-76
2023/05/10 05:40:06;;;;;;;0.70;0.70;;;;;;;;;;4941797;29;20453;-77
2023/05/10 05:42:33;;;;;;;0.80;0.80;;;;;;;;;;4947045;29;20517;-77
2023/05/10 05:45:00;;;;;;;0.70;0.70;;;;;;;;;;4936460;29;20437;-76
2023/05/10 05:47:29;;;;;;;0.70;0.70;;;;;;;;;;4934934;29;20454;-76
2023/05/10 05:49:55;;;;;;;0.60;0.60;;;;;;;;;;4932642;29;20493;-77
2023/05/10 05:52:23;;;;;;;0.60;0.60;;;;;;;;;;4952431;28;20543;-77
2023/05/10 05:54:52;;;;;;;0.70;0.70;;;;;;;;;;4935843;29;20441;-76
2023/05/10 05:57:19;;;;;;;0.70;0.70;;;;;;;;;;4932229;29;20449;-78
2023/05/10 05:59:46;;;;;;;0.70;0.70;;;;;;;;;;4942219;29;20454;-78
2023/05/10 06:02:13;;;;;;;0.70;0.70;;;;;;;;;;4937934;29;20491;-78
2023/05/10 06:04:41;;;;;;;0.70;0.70;;;;;;;;;;4925332;29;20492;-78
2023/05/10 06:07:10;;;;;;;0.70;0.70;;;;;;;;;;4933860;29;20478;-76
2023/05/10 06:09:37;;;;;;;0.80;0.80;;;;;;;;;;4939787;29;20448;-77
2023/05/10 06:12:05;;;;;;;0.70;0.70;;;;;;;;;;4940576;29;20450;-77
2023/05/10 06:14:32;;;;;;;0.70;0.70;;;;;;;;;;4945707;28;20450;-77
2023/05/10 06:16:59;;;;;;;0.77;0.77;;;;;;;;;;4930123;29;20438;-77
2023/05/10 06:19:27;;;;;;;0.60;0.60;;;;;;;;;;4931358;29;20525;-77
2023/05/10 06:21:55;;;;;;;0.60;0.60;;;;;;;;;;4941817;29;20479;-75
2023/05/10 06:24:24;;;;;;;0.70;0.70;;;;;;;;;;4942208;29;20436;-77
2023/05/10 06:26:51;;;;;;;0.87;0.80;;;;;;;;;;4932550;29;20440;-77
2023/05/10 06:29:18;;;;;;;0.80;0.80;;;;;;;;;;4930157;29;20441;-77
2023/05/10 06:31:45;;;;;;;1.27;1.17;;;;;;;;;;4936247;29;20439;-77
2023/05/10 06:34:13;;;;;;;0.80;0.80;;;;;;;;;;4942470;29;21174;-77
2023/05/10 06:36:40;;;;;;;0.90;0.90;;;;;;;;;;4939253;29;20458;-77
2023/05/10 06:39:11;;;;;;;0.70;0.70;;;;;;;;;;4947721;28;20462;-78
2023/05/10 06:41:38;;;;;;;0.60;0.60;;;;;;;;;;4932215;29;20472;-78
2023/05/10 06:44:06;;;;;;;0.70;0.70;;;;;;;;;;4927380;29;20486;-76
2023/05/10 06:46:33;;;;;;;1.10;1.07;;;;;;;;;;4946305;29;20930;-78
2023/05/10 06:49:01;;;;;;;1.73;1.33;;;;;;;;;;4934783;29;20443;-78
2023/05/10 06:51:29;;;;;;;0.80;0.80;;;;;;;;;;4930352;29;20568;-77
2023/05/10 06:53:57;;;;;;;0.70;0.70;;;;;;;;;;4938930;29;20475;-77
2023/05/10 06:56:25;;;;;;;0.70;0.70;;;;;;;;;;4940838;29;20438;-76
2023/05/10 06:58:52;;;;;;;0.70;0.70;;;;;;;;;;4933299;29;20444;-78
2023/05/10 07:01:20;;;;;;;0.70;0.70;;;;;;;;;;4950836;29;20499;-76
2023/05/10 07:03:47;;;;;;;0.70;0.70;;;;;;;;;;4940491;28;20484;-78
2023/05/10 07:06:14;;;;;;;0.67;0.63;;;;;;;;;;4942885;29;20549;-78
2023/05/10 07:08:58;;;;;;;0.70;0.70;;;;;;;;;;4929767;29;20483;-77
2023/05/10 07:11:26;;;;;;;0.60;0.60;;;;;;;;;;4936383;29;20445;-77
2023/05/10 07:13:53;;;;;;;0.80;0.80;;;;;;;;;;4936134;29;20528;-78
2023/05/10 07:16:21;;;;;;;0.60;0.60;;;;;;;;;;4938858;29;20463;-76
2023/05/10 07:18:48;;;;;;;0.70;0.60;;;;;;;;;;4940552;29;20506;-78
2023/05/10 07:21:15;;;;;;;0.70;0.70;;;;;;;;;;4939338;29;20529;-78
2023/05/10 07:23:42;;;;;;;0.70;0.70;;;;;;;;;;4938704;28;20927;-78
2023/05/10 07:26:11;;;;;;;0.60;0.60;;;;;;;;;;4923417;29;20441;-77
2023/05/10 07:28:41;;;;;;;0.70;0.70;;;;;;;;;;4937401;29;20448;-79
2023/05/10 07:31:08;;;;;;;0.60;0.60;;;;;;;;;;4938335;29;20634;-76
2023/05/10 07:33:35;;;;;;;2.33;2.13;;;;;;;;;;4935784;29;20504;-78
2023/05/10 07:36:02;;;;;;;0.60;0.60;;;;;;;;;;4939411;29;20454;-78
2023/05/10 07:38:29;;;;;;;1.40;1.30;;;;;;;;;;4944826;29;20464;-77
2023/05/10 07:40:56;;;;;;;0.60;0.60;;;;;;;;;;4936437;29;20523;-77
2023/05/10 07:43:23;;;;;;;0.70;0.70;;;;;;;;;;4935990;29;20487;-77
2023/05/10 07:45:52;;;;;;;0.60;0.60;;;;;;;;;;4943292;29;20455;-77
2023/05/10 07:48:21;;;;;;;0.70;0.70;;;;;;;;;;4920950;29;20446;-77
2023/05/10 07:50:49;;;;;;;0.77;0.77;;;;;;;;;;4939937;29;20460;-78
2023/05/10 07:53:16;;;;;;;0.70;0.70;;;;;;;;;;4937362;29;20449;-78
2023/05/10 07:55:43;;;;;;;1.17;1.10;;;;;;;;;;4936570;29;20440;-78
2023/05/10 07:58:10;;;;;;;0.70;0.70;;;;;;;;;;4933517;29;20451;-79
2023/05/10 08:00:39;;;;;;;0.63;0.63;;;;;;;;;;4941126;29;20458;-79
2023/05/10 08:03:07;;;;;;;0.70;0.70;;;;;;;;;;4939627;29;20484;-78
2023/05/10 08:05:35;;;;;;;0.70;0.70;;;;;;;;;;4943083;29;20437;-78
2023/05/10 08:08:02;;;;;;;0.70;0.70;;;;;;;;;;4942675;29;20989;-79
2023/05/10 08:10:29;;;;;;;0.60;0.60;;;;;;;;;;4945950;29;20469;-79
2023/05/10 08:12:56;;;;;;;0.70;0.70;;;;;;;;;;4933003;29;20927;-77
2023/05/10 08:15:23;;;;;;;0.70;0.70;;;;;;;;;;4925060;29;20536;-77
2023/05/10 08:17:49;;;;;;;7.80;2.00;;;;;;;;;;4934939;29;20444;-75
2023/05/10 08:20:20;;;;;;;1.00;0.77;;;;;;;;;;4944810;28;20503;-78
2023/05/10 08:22:47;;;;;;;0.67;0.67;;;;;;;;;;4937708;29;20561;-76
2023/05/10 08:25:18;;;;;;;0.60;0.60;;;;;;;;;;4926743;29;20435;-80
2023/05/10 08:27:45;;;;;;;0.70;0.70;;;;;;;;;;4922146;29;20448;-78
2023/05/10 08:30:12;;;;;;;0.60;0.60;;;;;;;;;;4939925;29;20936;-77
2023/05/10 08:32:42;;;;;;;0.80;0.80;;;;;;;;;;4937247;29;20987;-77
2023/05/10 08:35:09;;;;;;;0.70;0.70;;;;;;;;;;4929948;29;20508;-77
2023/05/10 08:37:37;;;;;;;0.70;0.70;;;;;;;;;;4929501;29;20469;-77
2023/05/10 08:40:06;;;;;;;0.70;0.70;;;;;;;;;;4934653;29;20447;-78
2023/05/10 08:42:35;;;;;;;0.70;0.70;;;;;;;;;;4941723;29;20455;-76
2023/05/10 08:45:04;;;;;;;0.60;0.60;;;;;;;;;;4919970;29;20450;-77
2023/05/10 08:47:31;;;;;;;0.60;0.60;;;;;;;;;;4936631;29;20451;-77
2023/05/10 08:50:02;;;;;;;0.60;0.60;;;;;;;;;;4933078;29;20445;-76
2023/05/10 08:52:30;;;;;;;3.13;1.13;;;;;;;;;;4941502;29;20493;-75
2023/05/10 08:54:59;;;;;;;0.70;0.70;;;;;;;;;;4940199;29;20820;-76
2023/05/10 08:57:26;;;;;;;1.37;1.27;;;;;;;;;;4931989;29;20502;-76
2023/05/10 08:59:53;;;;;;;0.73;0.73;;;;;;;;;;4946085;29;20652;-75
2023/05/10 09:02:20;;;;;;;0.70;0.70;;;;;;;;;;4937752;29;20445;-75
2023/05/10 09:04:48;;;;;;;0.70;0.70;;;;;;;;;;4934201;29;20488;-75
2023/05/10 09:07:16;;;;;;;0.60;0.60;;;;;;;;;;4931332;29;20484;-75
2023/05/10 09:09:45;;;;;;;0.60;0.60;;;;;;;;;;4928884;29;20454;-74
2023/05/10 09:12:15;;;;;;;0.70;0.70;;;;;;;;;;4924508;29;20454;-74
2023/05/10 09:14:44;;;;;;;0.70;0.70;;;;;;;;;;4940724;29;20907;-75
2023/05/10 09:17:11;;;;;;;0.60;0.60;;;;;;;;;;4931496;29;20785;-75
2023/05/10 09:19:38;;;;;;;0.70;0.60;;;;;;;;;;4936823;28;20975;-76
2023/05/10 09:22:05;;;;;;;0.70;0.70;;;;;;;;;;4940181;29;20475;-75
2023/05/10 09:24:32;;;;;;;0.70;0.70;;;;;;;;;;4933354;29;20560;-76
2023/05/10 09:26:58;;;;;;;0.80;0.80;;;;;;;;;;4932592;29;20430;-75
2023/05/10 09:29:38;;;;;;;0.70;0.70;;;;;;;;;;4931993;29;20453;-75
2023/05/10 09:32:05;;;;;;;0.70;0.70;;;;;;;;;;4943495;29;21017;-75
2023/05/10 09:34:35;;;;;;;0.70;0.70;;;;;;;;;;4922083;29;20434;-77
2023/05/10 09:37:04;;;;;;;26.20;3.10;;;;;;;;;;4941087;29;20462;-75
2023/05/10 09:39:31;;;;;;;0.70;0.67;;;;;;;;;;4935258;29;20467;-77
2023/05/10 09:41:59;;;;;;;1.67;1.17;;;;;;;;;;4943271;28;20459;-75
2023/05/10 09:44:27;;;;;;;0.70;0.70;;;;;;;;;;4935252;29;20579;-75
2023/05/10 09:46:56;;;;;;;0.67;0.67;;;;;;;;;;4948043;29;20503;-77
2023/05/10 09:49:23;;;;;;;0.70;0.70;;;;;;;;;;4936940;29;20926;-75
2023/05/10 09:52:02;;;;;;;0.70;0.70;;;;;;;;;;4939924;29;20448;-75
2023/05/10 09:54:31;;;;;;;0.70;0.70;;;;;;;;;;4947170;29;20504;-77
2023/05/10 09:56:59;;;;;;;0.90;0.90;;;;;;;;;;4941505;29;20449;-75
2023/05/10 09:59:27;;;;;;;0.80;0.80;;;;;;;;;;4938834;29;20914;-76
2023/05/10 10:01:57;;;;;;;1.23;1.13;;;;;;;;;;4939461;29;20941;-76
2023/05/10 10:04:24;;;;;;;1.17;1.17;;;;;;;;;;4936148;29;20524;-75
2023/05/10 10:06:59;;;;;;;1.27;1.00;;;;;;;;;;4940715;29;20518;-75
2023/05/10 10:09:27;;;;;;;0.80;0.80;;;;;;;;;;4938469;29;20930;-73
2023/05/10 10:11:54;;;;;;;0.70;0.70;;;;;;;;;;4931855;29;20453;-76
2023/05/10 10:14:21;;;;;;;0.80;0.80;;;;;;;;;;4936305;29;20478;-76
2023/05/10 10:16:50;;;;;;;0.70;0.70;;;;;;;;;;4936362;29;20544;-76
2023/05/10 10:19:35;;;;;;;0.70;0.70;;;;;;;;;;4937960;29;20894;-72
2023/05/10 10:22:03;;;;;;;0.80;0.80;;;;;;;;;;4937412;29;20461;-74
2023/05/10 10:24:30;;;;;;;0.80;0.80;;;;;;;;;;4951953;28;20479;-74
2023/05/10 10:27:02;;;;;;;0.77;0.77;;;;;;;;;;4936583;29;20445;-76
2023/05/10 10:29:32;;;;;;;0.70;0.70;;;;;;;;;;4958196;28;20460;-74
2023/05/10 10:32:06;;;;;;;0.70;0.70;;;;;;;;;;4931049;29;20905;-76
2023/05/10 10:34:35;;;;;;;0.80;0.80;;;;;;;;;;4904542;29;20485;-77
2023/05/10 10:37:04;;;;;;;0.80;0.70;;;;;;;;;;4943590;29;20555;-74
2023/05/10 10:39:32;;;;;;;1.30;1.20;;;;;;;;;;4941130;29;20466;-77
2023/05/10 10:41:59;;;;;;;0.80;0.80;;;;;;;;;;4939850;29;20454;-75
2023/05/10 10:44:35;;;;;;;0.70;0.70;;;;;;;;;;4935511;29;20458;-75
2023/05/10 10:47:08;;;;;;;0.77;0.77;;;;;;;;;;4935887;29;20467;-76
2023/05/10 10:49:44;;;;;;;0.70;0.70;;;;;;;;;;4933358;29;20412;-74
2023/05/10 10:52:15;;;;;;;0.70;0.67;;;;;;;;;;4935645;29;20773;-76
2023/05/10 10:54:49;;;;;;;1.00;0.90;;;;;;;;;;4926745;29;20444;-75
2023/05/10 10:57:17;;;;;;;0.70;0.60;;;;;;;;;;4942857;29;20529;-75
2023/05/10 10:59:45;;;;;;;0.80;0.80;;;;;;;;;;4937721;29;20814;-71
2023/05/10 11:02:28;;;;;;;0.73;0.73;;;;;;;;;;4949637;28;20433;-76
2023/05/10 11:04:59;;;;;;;1.10;1.00;;;;;;;;;;4921764;29;20813;-74
2023/05/10 11:07:26;;;;;;;0.70;0.60;;;;;;;;;;4924618;29;20469;-74
2023/05/10 11:09:53;;;;;;;0.70;0.60;;;;;;;;;;4935339;29;20461;-76
2023/05/10 11:12:20;;;;;;;0.70;0.60;;;;;;;;;;4943818;29;20441;-75
2023/05/10 11:14:49;;;;;;;0.70;0.70;;;;;;;;;;4931979;29;20957;-76
2023/05/10 11:17:23;;;;;;;0.70;0.70;;;;;;;;;;4934828;29;20958;-75
2023/05/10 11:20:09;;;;;;;0.70;0.70;;;;;;;;;;4938761;29;20759;-75
2023/05/10 11:22:54;;;;;;;2.80;1.83;;;;;;;;;;4938024;29;21379;-76
2023/05/10 11:25:26;;;;;;;0.70;0.60;;;;;;;;;;4935838;29;21001;-75
2023/05/10 11:27:56;;;;;;;0.77;0.77;;;;;;;;;;4935446;29;20934;-73
2023/05/10 11:30:24;;;;;;;0.73;0.70;;;;;;;;;;4949385;28;20465;-73
2023/05/10 11:32:51;;;;;;;0.80;0.80;;;;;;;;;;4943359;29;20531;-74
2023/05/10 11:35:20;;;;;;;0.80;0.80;;;;;;;;;;4936360;29;20487;-75
2023/05/10 11:37:48;;;;;;;0.70;0.60;;;;;;;;;;4927791;29;20465;-77
2023/05/10 11:40:16;;;;;;;0.70;0.70;;;;;;;;;;4924567;29;20875;-75
2023/05/10 11:42:45;;;;;;;0.70;0.63;;;;;;;;;;4941245;28;20452;-73
2023/05/10 11:45:13;;;;;;;0.90;0.90;;;;;;;;;;4939308;29;20481;-76
2023/05/10 11:47:42;;;;;;;1.00;0.93;;;;;;;;;;4937078;29;20449;-76
2023/05/10 11:50:10;;;;;;;0.70;0.70;;;;;;;;;;4937196;29;20889;-75
2023/05/10 11:52:40;;;;;;;0.80;0.80;;;;;;;;;;4941597;29;20464;-75
2023/05/10 11:55:09;;;;;;;0.70;0.60;;;;;;;;;;4935979;29;20528;-75
2023/05/10 11:57:39;;;;;;;0.90;0.90;;;;;;;;;;4939654;29;20463;-75
2023/05/10 12:00:06;;;;;;;0.70;0.70;;;;;;;;;;4935926;28;20485;-76
2023/05/10 12:02:33;;;;;;;0.70;0.60;;;;;;;;;;4938735;29;20818;-76
2023/05/10 12:05:01;;;;;;;0.70;0.60;;;;;;;;;;4942681;29;20443;-76
2023/05/10 12:07:27;;;;;;;0.70;0.60;;;;;;;;;;4913553;29;20470;-76
2023/05/10 12:10:10;;;;;;;0.70;0.60;;;;;;;;;;4920245;29;20416;-76
2023/05/10 12:12:37;;;;;;;0.70;0.70;;;;;;;;;;4929785;29;20524;-75
2023/05/10 12:15:06;;;;;;;0.70;0.60;;;;;;;;;;4939680;29;20437;-74
2023/05/10 12:17:36;;;;;;;0.70;0.70;;;;;;;;;;4944789;29;20453;-72
2023/05/10 12:20:15;;;;;;;0.70;0.70;;;;;;;;;;4934707;29;20465;-76
2023/05/10 12:22:46;;;;;;;0.70;0.60;;;;;;;;;;4933458;29;20489;-76
2023/05/10 12:25:16;;;;;;;0.70;0.60;;;;;;;;;;4943128;29;20473;-74
2023/05/10 12:27:50;;;;;;;0.70;0.70;;;;;;;;;;4938664;29;20935;-76
2023/05/10 12:30:20;;;;;;;0.70;0.60;;;;;;;;;;4917943;29;20894;-76
2023/05/10 12:32:49;;;;;;;1.23;1.13;;;;;;;;;;4922454;29;20919;-75
2023/05/10 12:35:23;;;;;;;0.70;0.70;;;;;;;;;;4939821;29;20425;-76
2023/05/10 12:37:51;;;;;;;0.70;0.63;;;;;;;;;;4931012;29;20481;-74
2023/05/10 12:40:19;;;;;;;0.70;0.60;;;;;;;;;;4937864;29;20835;-76
2023/05/10 12:42:51;;;;;;;0.70;0.70;;;;;;;;;;4923035;29;20957;-76
2023/05/10 12:45:20;;;;;;;0.70;0.70;;;;;;;;;;4934072;29;20484;-76
2023/05/10 12:47:49;;;;;;;0.70;0.60;;;;;;;;;;4937190;29;20450;-77
2023/05/10 12:50:17;;;;;;;0.70;0.70;;;;;;;;;;4934184;29;20452;-76
2023/05/10 12:52:44;;;;;;;0.80;0.70;;;;;;;;;;4933896;29;20436;-76
2023/05/10 12:55:13;;;;;;;0.70;0.67;;;;;;;;;;4936259;29;20454;-75
2023/05/10 12:57:41;;;;;;;0.70;0.60;;;;;;;;;;4944397;29;20415;-76
2023/05/10 13:00:09;;;;;;;0.70;0.70;;;;;;;;;;4939993;29;20429;-75
2023/05/10 13:02:37;;;;;;;0.70;0.70;;;;;;;;;;4924236;29;21027;-76
2023/05/10 13:05:06;;;;;;;0.70;0.70;;;;;;;;;;4933321;29;20565;-75
2023/05/10 13:07:33;;;;;;;0.70;0.60;;;;;;;;;;4939046;29;20555;-77
2023/05/10 13:10:00;;;;;;;0.70;0.67;;;;;;;;;;4935433;29;20441;-76
2023/05/10 13:12:27;;;;;;;0.70;0.70;;;;;;;;;;4941801;29;20472;-76
2023/05/10 13:14:55;;;;;;;0.70;0.70;;;;;;;;;;4928994;29;20869;-75
2023/05/10 13:17:22;;;;;;;0.70;0.70;;;;;;;;;;4935120;29;20867;-76
2023/05/10 13:19:52;;;;;;;0.70;0.60;;;;;;;;;;4935126;29;20477;-76
2023/05/10 13:22:20;;;;;;;0.70;0.70;;;;;;;;;;4934515;29;20442;-76
2023/05/10 13:25:06;;;;;;;0.70;0.70;;;;;;;;;;4955160;28;20886;-75
2023/05/10 13:27:34;;;;;;;0.90;0.90;;;;;;;;;;4937711;29;21005;-76
2023/05/10 13:30:05;;;;;;;0.70;0.70;;;;;;;;;;4950570;29;20916;-74
2023/05/10 13:32:33;;;;;;;0.70;0.70;;;;;;;;;;4940143;29;20784;-74
2023/05/10 13:35:00;;;;;;;0.70;0.60;;;;;;;;;;4922086;29;20449;-75
2023/05/10 13:37:28;;;;;;;0.70;0.70;;;;;;;;;;4936250;29;20465;-77
2023/05/10 13:39:56;;;;;;;1.27;1.20;;;;;;;;;;4938811;29;20440;-76
2023/05/10 13:42:23;;;;;;;1.00;1.00;;;;;;;;;;4938143;29;20420;-77
2023/05/10 13:44:50;;;;;;;0.70;0.60;;;;;;;;;;4937420;29;20551;-76
2023/05/10 13:47:21;;;;;;;0.70;0.70;;;;;;;;;;4941280;29;20457;-77
2023/05/10 13:49:48;;;;;;;0.70;0.70;;;;;;;;;;4937215;29;20403;-77
2023/05/10 13:52:15;;;;;;;0.70;0.60;;;;;;;;;;4938247;29;20868;-76
2023/05/10 13:54:42;;;;;;;0.80;0.77;;;;;;;;;;4940042;29;20416;-75
2023/05/10 13:57:09;;;;;;;0.70;0.70;;;;;;;;;;4942849;29;20478;-76
2023/05/10 13:59:37;;;;;;;0.73;0.73;;;;;;;;;;4940331;29;20476;-75
2023/05/10 14:02:04;;;;;;;1.00;0.90;;;;;;;;;;4944888;29;20459;-75
2023/05/10 14:04:32;;;;;;;0.70;0.60;;;;;;;;;;4940039;28;20528;-74
2023/05/10 14:06:59;;;;;;;0.80;0.80;;;;;;;;;;4933973;29;20457;-78
2023/05/10 14:09:28;;;;;;;0.70;0.60;;;;;;;;;;4937352;29;20545;-76
2023/05/10 14:11:55;;;;;;;0.70;0.60;;;;;;;;;;4938933;29;20545;-75
2023/05/10 14:14:23;;;;;;;0.70;0.60;;;;;;;;;;4941639;29;20540;-76
2023/05/10 14:16:49;;;;;;;0.70;0.60;;;;;;;;;;4934136;29;20440;-76
2023/05/10 14:19:18;;;;;;;0.70;0.67;;;;;;;;;;4938101;29;20554;-75
2023/05/10 14:21:46;;;;;;;0.70;0.60;;;;;;;;;;4934517;29;20453;-76
2023/05/10 14:24:13;;;;;;;0.73;0.70;;;;;;;;;;4942774;29;20458;-75
2023/05/10 14:26:41;;;;;;;0.80;0.77;;;;;;;;;;4931326;29;20482;-76
2023/05/10 14:29:07;;;;;;;0.70;0.60;;;;;;;;;;4931809;29;20453;-74
2023/05/10 14:31:37;;;;;;;0.70;0.70;;;;;;;;;;4939435;29;20424;-75
2023/05/10 14:34:05;;;;;;;0.70;0.60;;;;;;;;;;4920167;29;20911;-76
2023/05/10 14:36:33;;;;;;;0.70;0.60;;;;;;;;;;4933122;29;20890;-75
2023/05/10 14:39:02;;;;;;;0.70;0.60;;;;;;;;;;4934975;29;20792;-75
2023/05/10 14:41:31;;;;;;;0.70;0.60;;;;;;;;;;4935237;29;20438;-74
2023/05/10 14:43:58;;;;;;;0.70;0.60;;;;;;;;;;4938750;29;21008;-76
2023/05/10 14:46:25;;;;;;;0.70;0.60;;;;;;;;;;4939318;29;20473;-75
2023/05/10 14:48:52;;;;;;;0.77;0.70;;;;;;;;;;4930850;29;20497;-74
2023/05/10 14:51:21;;;;;;;0.70;0.60;;;;;;;;;;4935865;29;20960;-75